createdAt,value
2018-09-01T00:00:02.482Z,15.30
2018-09-01T00:03:00.376Z,15.30
2018-09-01T00:05:58.067Z,15.30
2018-09-01T00:08:55.784Z,15.30
2018-09-01T00:11:53.483Z,15.30
2018-09-01T00:14:51.317Z,15.20
2018-09-01T00:17:48.945Z,15.20
2018-09-01T00:20:46.626Z,15.30
2018-09-01T00:23:44.619Z,15.20
2018-09-01T00:26:42.286Z,15.20
2018-09-01T00:29:40.021Z,15.20
2018-09-01T00:32:37.648Z,15.20
2018-09-01T00:35:35.183Z,15.10
2018-09-01T00:38:38.915Z,15.10
2018-09-01T00:41:36.607Z,15.10
2018-09-01T00:44:34.362Z,15.20
2018-09-01T00:47:31.814Z,15.20
2018-09-01T00:50:29.556Z,15.20
2018-09-01T00:53:27.458Z,15.20
2018-09-01T00:56:25.330Z,15.10
2018-09-01T00:59:22.986Z,15.10
2018-09-01T01:02:20.567Z,15.10
2018-09-01T01:05:18.203Z,15.20
2018-09-01T01:08:15.766Z,15.20
2018-09-01T01:11:13.675Z,15.20
2018-09-01T01:14:11.508Z,15.20
2018-09-01T01:17:09.248Z,15.20
2018-09-01T01:20:06.986Z,15.20
2018-09-01T01:23:04.764Z,15.30
2018-09-01T01:26:02.376Z,15.20
2018-09-01T01:29:00.177Z,15.20
2018-09-01T01:31:58.050Z,15.10
2018-09-01T01:34:56.044Z,15.20
2018-09-01T01:37:53.645Z,15.00
2018-09-01T01:40:51.312Z,15.00
2018-09-01T01:43:49.006Z,15.00
2018-09-01T01:46:46.657Z,15.10
2018-09-01T01:49:44.121Z,15.00
2018-09-01T01:52:41.623Z,15.00
2018-09-01T01:55:39.240Z,15.00
2018-09-01T01:58:37.207Z,15.00
2018-09-01T02:01:35.143Z,15.00
2018-09-01T02:04:33.307Z,15.00
2018-09-01T02:07:31.025Z,15.00
2018-09-01T02:10:28.947Z,15.10
2018-09-01T02:13:26.777Z,15.00
2018-09-01T02:16:24.394Z,15.00
2018-09-01T02:19:22.362Z,15.00
2018-09-01T02:22:20.256Z,15.00
2018-09-01T02:25:17.941Z,15.00
2018-09-01T02:28:16.026Z,15.00
2018-09-01T02:31:13.830Z,15.00
2018-09-01T02:34:43.018Z,15.00
2018-09-01T02:37:40.542Z,15.00
2018-09-01T02:40:38.314Z,15.00
2018-09-01T02:43:35.884Z,15.00
2018-09-01T02:46:33.635Z,14.90
2018-09-01T02:49:31.534Z,15.00
2018-09-01T02:52:29.197Z,15.00
2018-09-01T02:55:26.992Z,15.00
2018-09-01T02:58:24.594Z,15.00
2018-09-01T03:01:28.296Z,15.00
2018-09-01T03:04:26.040Z,15.00
2018-09-01T03:07:23.639Z,15.00
2018-09-01T03:10:21.452Z,15.00
2018-09-01T03:13:19.143Z,14.90
2018-09-01T03:16:17.063Z,14.90
2018-09-01T03:19:15.903Z,14.90
2018-09-01T03:22:13.570Z,14.90
2018-09-01T03:25:11.446Z,14.90
2018-09-01T03:28:09.149Z,14.90
2018-09-01T03:31:06.837Z,14.90
2018-09-01T03:34:05.282Z,14.90
2018-09-01T03:37:04.052Z,14.80
2018-09-01T03:40:01.854Z,14.90
2018-09-01T03:43:00.362Z,15.00
2018-09-01T03:45:58.378Z,15.00
2018-09-01T03:48:56.265Z,15.10
2018-09-01T03:51:54.020Z,15.10
2018-09-01T03:54:51.891Z,15.10
2018-09-01T03:57:49.420Z,15.10
2018-09-01T04:00:47.103Z,15.10
2018-09-01T04:03:44.819Z,15.10
2018-09-01T04:06:42.587Z,15.10
2018-09-01T04:09:40.501Z,15.10
2018-09-01T04:12:38.134Z,15.00
2018-09-01T04:15:35.951Z,15.10
2018-09-01T04:18:33.594Z,15.10
2018-09-01T04:21:31.145Z,15.20
2018-09-01T04:24:28.780Z,15.20
2018-09-01T04:27:26.551Z,15.20
2018-09-01T04:30:24.289Z,15.20
2018-09-01T04:33:21.956Z,15.20
2018-09-01T04:36:19.634Z,15.30
2018-09-01T04:39:18.547Z,15.30
2018-09-01T04:42:16.211Z,15.30
2018-09-01T04:45:13.850Z,15.30
2018-09-01T04:48:11.456Z,15.30
2018-09-01T04:51:09.143Z,15.30
2018-09-01T04:54:06.999Z,15.40
2018-09-01T04:57:05.553Z,15.30
2018-09-01T05:00:03.352Z,15.40
2018-09-01T05:03:01.917Z,15.40
2018-09-01T05:05:59.765Z,15.50
2018-09-01T05:08:58.578Z,15.50
2018-09-01T05:11:57.223Z,15.60
2018-09-01T05:14:55.763Z,15.60
2018-09-01T05:17:53.419Z,15.60
2018-09-01T05:20:51.329Z,15.60
2018-09-01T05:23:49.046Z,15.60
2018-09-01T05:26:46.684Z,15.70
2018-09-01T05:29:44.684Z,15.70
2018-09-01T05:32:42.237Z,15.70
2018-09-01T05:35:41.084Z,15.80
2018-09-01T05:38:38.853Z,15.80
2018-09-01T05:41:37.598Z,15.80
2018-09-01T05:44:35.068Z,15.80
2018-09-01T05:47:32.874Z,15.80
2018-09-01T05:50:30.534Z,15.80
2018-09-01T05:53:28.275Z,15.80
2018-09-01T05:56:25.973Z,15.80
2018-09-01T05:59:23.609Z,15.80
2018-09-01T06:02:21.319Z,15.90
2018-09-01T06:05:19.038Z,15.90
2018-09-01T06:08:16.722Z,16.00
2018-09-01T06:11:14.483Z,16.00
2018-09-01T06:14:12.338Z,16.00
2018-09-01T06:17:10.261Z,16.00
2018-09-01T06:20:07.843Z,16.00
2018-09-01T06:23:05.451Z,16.10
2018-09-01T06:26:03.191Z,16.10
2018-09-01T06:29:05.079Z,16.20
2018-09-01T06:32:05.836Z,16.20
2018-09-01T06:35:03.597Z,16.20
2018-09-01T06:38:02.183Z,16.30
2018-09-01T06:40:59.810Z,16.20
2018-09-01T06:43:57.647Z,16.40
2018-09-01T06:46:55.569Z,16.40
2018-09-01T06:49:53.154Z,16.30
2018-09-01T06:52:50.988Z,16.40
2018-09-01T06:55:48.597Z,16.50
2018-09-01T06:58:46.497Z,16.50
2018-09-01T07:01:44.392Z,16.60
2018-09-01T07:04:42.294Z,16.70
2018-09-01T07:07:40.132Z,16.80
2018-09-01T07:10:38.001Z,16.70
2018-09-01T07:13:35.682Z,16.80
2018-09-01T07:16:33.346Z,16.90
2018-09-01T07:19:31.063Z,17.00
2018-09-01T07:22:29.014Z,17.10
2018-09-01T07:25:26.847Z,17.10
2018-09-01T07:28:25.681Z,17.10
2018-09-01T07:31:23.518Z,17.00
2018-09-01T07:34:21.101Z,16.90
2018-09-01T07:37:19.795Z,16.90
2018-09-01T07:40:17.655Z,16.90
2018-09-01T07:43:15.421Z,16.80
2018-09-01T07:46:13.098Z,16.80
2018-09-01T07:49:10.832Z,16.90
2018-09-01T07:52:08.809Z,17.00
2018-09-01T07:55:06.577Z,17.10
2018-09-01T07:58:04.636Z,17.00
2018-09-01T08:01:02.162Z,16.90
2018-09-01T08:03:59.972Z,16.90
2018-09-01T08:06:58.708Z,16.90
2018-09-01T08:09:56.391Z,16.90
2018-09-01T08:12:54.135Z,17.10
2018-09-01T08:15:51.876Z,17.40
2018-09-01T08:18:49.466Z,17.60
2018-09-01T08:21:47.441Z,17.60
2018-09-01T08:24:45.267Z,17.60
2018-09-01T08:27:43.005Z,17.50
2018-09-01T08:30:40.823Z,17.80
2018-09-01T08:33:38.535Z,17.80
2018-09-01T08:36:36.436Z,17.80
2018-09-01T08:39:34.110Z,17.90
2018-09-01T08:42:32.544Z,18.00
2018-09-01T08:45:30.618Z,18.00
2018-09-01T08:48:28.655Z,18.00
2018-09-01T08:51:26.273Z,18.00
2018-09-01T08:54:23.995Z,18.30
2018-09-01T08:57:22.163Z,18.40
2018-09-01T09:00:19.635Z,18.40
2018-09-01T09:03:17.468Z,18.70
2018-09-01T09:06:15.208Z,19.00
2018-09-01T09:09:12.768Z,19.40
2018-09-01T09:12:10.487Z,20.40
2018-09-01T09:15:08.106Z,20.30
2018-09-01T09:18:06.864Z,20.30
2018-09-01T09:21:04.731Z,20.30
2018-09-01T09:24:02.686Z,21.00
2018-09-01T09:27:01.363Z,22.50
2018-09-01T09:29:59.269Z,23.40
2018-09-01T09:32:57.067Z,23.60
2018-09-01T09:35:54.998Z,23.10
2018-09-01T09:38:52.636Z,22.20
2018-09-01T09:41:50.295Z,23.20
2018-09-01T09:44:48.048Z,23.70
2018-09-01T09:47:45.770Z,23.30
2018-09-01T09:50:43.574Z,24.00
2018-09-01T09:53:41.431Z,23.30
2018-09-01T09:56:39.223Z,22.00
2018-09-01T09:59:37.067Z,22.80
2018-09-01T10:02:34.864Z,23.60
2018-09-01T10:05:32.753Z,24.10
2018-09-01T10:08:30.292Z,23.10
2018-09-01T10:11:27.978Z,22.00
2018-09-01T10:14:25.579Z,22.10
2018-09-01T10:17:23.255Z,22.00
2018-09-01T10:20:21.085Z,21.70
2018-09-01T10:23:18.900Z,22.50
2018-09-01T10:26:16.650Z,23.80
2018-09-01T10:29:14.395Z,23.90
2018-09-01T10:32:12.081Z,23.10
2018-09-01T10:35:10.052Z,22.70
2018-09-01T10:38:07.627Z,22.30
2018-09-01T10:41:05.344Z,21.80
2018-09-01T10:44:03.079Z,21.20
2018-09-01T10:47:00.933Z,20.80
2018-09-01T10:49:58.625Z,20.70
2018-09-01T10:52:57.383Z,20.60
2018-09-01T10:55:55.164Z,20.60
2018-09-01T10:58:52.983Z,20.50
2018-09-01T11:01:50.615Z,20.40
2018-09-01T11:04:48.357Z,20.30
2018-09-01T11:07:46.155Z,20.30
2018-09-01T11:10:44.183Z,20.00
2018-09-01T11:13:41.948Z,20.10
2018-09-01T11:16:39.595Z,20.20
2018-09-01T11:19:37.256Z,20.30
2018-09-01T11:22:34.885Z,20.40
2018-09-01T11:25:32.797Z,20.40
2018-09-01T11:28:30.603Z,20.50
2018-09-01T11:31:28.391Z,20.40
2018-09-01T11:34:26.003Z,20.50
2018-09-01T11:37:23.658Z,20.50
2018-09-01T11:40:21.346Z,20.60
2018-09-01T11:43:18.958Z,20.70
2018-09-01T11:46:16.595Z,20.60
2018-09-01T11:49:14.242Z,20.60
2018-09-01T11:52:12.714Z,20.80
2018-09-01T11:55:09.932Z,20.80
2018-09-01T11:58:08.735Z,21.00
2018-09-01T12:01:07.433Z,21.00
2018-09-01T12:04:05.327Z,21.10
2018-09-01T12:07:03.280Z,21.10
2018-09-01T12:10:01.511Z,21.40
2018-09-01T12:12:59.246Z,21.70
2018-09-01T12:15:56.930Z,21.50
2018-09-01T12:18:55.037Z,21.80
2018-09-01T12:21:52.502Z,22.00
2018-09-01T12:24:50.339Z,21.90
2018-09-01T12:27:48.058Z,21.90
2018-09-01T12:30:45.752Z,21.80
2018-09-01T12:33:43.495Z,21.70
2018-09-01T12:36:41.163Z,21.60
2018-09-01T12:39:38.904Z,21.50
2018-09-01T12:42:36.347Z,21.40
2018-09-01T12:45:33.963Z,21.30
2018-09-01T12:48:31.580Z,21.20
2018-09-01T12:51:29.271Z,21.00
2018-09-01T12:54:26.883Z,21.10
2018-09-01T12:57:25.776Z,21.20
2018-09-01T13:00:24.594Z,21.10
2018-09-01T13:03:22.155Z,21.50
2018-09-01T13:06:19.910Z,21.40
2018-09-01T13:09:17.772Z,21.50
2018-09-01T13:12:15.561Z,21.40
2018-09-01T13:15:13.197Z,21.50
2018-09-01T13:18:10.711Z,21.40
2018-09-01T13:21:08.258Z,21.30
2018-09-01T13:24:05.860Z,21.30
2018-09-01T13:27:03.617Z,21.30
2018-09-01T13:30:01.440Z,21.20
2018-09-01T13:32:59.081Z,21.00
2018-09-01T13:35:56.784Z,21.10
2018-09-01T13:38:54.632Z,21.30
2018-09-01T13:41:52.573Z,21.30
2018-09-01T13:47:53.774Z,20.80
2018-09-01T13:50:51.409Z,21.00
2018-09-01T13:53:49.175Z,21.10
2018-09-01T13:56:46.891Z,21.10
2018-09-01T13:59:44.692Z,21.00
2018-09-01T14:02:42.422Z,20.90
2018-09-01T14:05:40.105Z,20.90
2018-09-01T14:08:39.231Z,21.00
2018-09-01T14:11:36.909Z,20.90
2018-09-01T14:14:34.841Z,20.90
2018-09-01T14:17:33.575Z,20.80
2018-09-01T14:20:31.395Z,20.80
2018-09-01T14:23:29.031Z,20.90
2018-09-01T14:26:27.815Z,20.80
2018-09-01T14:29:25.628Z,20.60
2018-09-01T14:32:23.366Z,20.50
2018-09-01T14:35:21.083Z,20.50
2018-09-01T14:38:18.782Z,20.70
2018-09-01T14:41:16.660Z,21.20
2018-09-01T14:44:14.569Z,21.40
2018-09-01T14:47:12.137Z,21.50
2018-09-01T14:50:10.124Z,21.40
2018-09-01T14:53:07.778Z,21.10
2018-09-01T14:56:05.383Z,21.10
2018-09-01T14:59:04.018Z,21.10
2018-09-01T15:02:01.653Z,20.90
2018-09-01T15:04:59.370Z,20.80
2018-09-01T15:07:57.615Z,20.50
2018-09-01T15:10:54.902Z,20.40
2018-09-01T15:13:52.630Z,20.30
2018-09-01T15:16:50.311Z,20.30
2018-09-01T15:19:48.147Z,20.20
2018-09-01T15:22:45.980Z,20.10
2018-09-01T15:25:43.655Z,20.20
2018-09-01T15:28:41.255Z,20.20
2018-09-01T15:31:38.955Z,20.20
2018-09-01T15:34:36.871Z,20.10
2018-09-01T15:37:34.736Z,20.00
2018-09-01T15:40:32.355Z,19.90
2018-09-01T15:43:30.068Z,19.90
2018-09-01T15:46:27.950Z,20.10
2018-09-01T15:49:25.535Z,20.20
2018-09-01T15:52:32.259Z,20.30
2018-09-01T15:55:29.983Z,20.30
2018-09-01T15:58:27.643Z,20.10
2018-09-01T16:01:25.385Z,20.10
2018-09-01T16:04:23.020Z,20.10
2018-09-01T16:07:20.742Z,20.00
2018-09-01T16:10:18.311Z,19.90
2018-09-01T16:13:16.060Z,20.00
2018-09-01T16:16:13.757Z,19.90
2018-09-01T16:19:11.648Z,19.60
2018-09-01T16:22:09.375Z,19.60
2018-09-01T16:25:07.232Z,19.60
2018-09-01T16:28:05.016Z,19.50
2018-09-01T16:31:03.641Z,19.50
2018-09-01T16:34:01.353Z,19.40
2018-09-01T16:36:59.166Z,19.40
2018-09-01T16:39:57.185Z,19.30
2018-09-01T16:42:54.798Z,19.30
2018-09-01T16:45:52.471Z,19.20
2018-09-01T16:48:50.090Z,19.10
2018-09-01T16:51:47.998Z,19.00
2018-09-01T16:54:45.716Z,18.90
2018-09-01T16:57:43.532Z,18.70
2018-09-01T17:00:41.282Z,18.70
2018-09-01T17:03:38.814Z,18.70
2018-09-01T17:06:36.444Z,18.70
2018-09-01T17:09:34.827Z,18.70
2018-09-01T17:12:32.384Z,18.70
2018-09-01T17:15:29.930Z,18.50
2018-09-01T17:18:27.559Z,18.50
2018-09-01T17:21:26.178Z,18.40
2018-09-01T17:24:23.935Z,18.30
2018-09-01T17:27:21.599Z,18.20
2018-09-01T17:30:20.130Z,18.20
2018-09-01T17:33:17.814Z,18.10
2018-09-01T17:36:16.627Z,18.20
2018-09-01T17:39:14.325Z,18.10
2018-09-01T17:42:11.879Z,18.00
2018-09-01T17:45:09.671Z,17.90
2018-09-01T17:48:07.318Z,17.80
2018-09-01T17:51:06.077Z,17.80
2018-09-01T17:54:03.880Z,17.70
2018-09-01T17:57:01.603Z,17.70
2018-09-01T17:59:59.261Z,17.60
2018-09-01T18:02:56.964Z,17.60
2018-09-01T18:05:54.610Z,17.50
2018-09-01T18:08:52.482Z,17.50
2018-09-01T18:11:50.183Z,17.30
2018-09-01T18:14:48.172Z,17.30
2018-09-01T18:17:46.595Z,17.20
2018-09-01T18:20:44.507Z,17.20
2018-09-01T18:23:42.277Z,17.00
2018-09-01T18:26:46.930Z,17.00
2018-09-01T18:29:44.691Z,17.00
2018-09-01T18:32:42.379Z,16.90
2018-09-01T18:35:40.175Z,16.90
2018-09-01T18:38:37.985Z,16.90
2018-09-01T18:41:35.588Z,16.90
2018-09-01T18:44:33.398Z,16.70
2018-09-01T18:47:31.141Z,16.70
2018-09-01T18:50:28.784Z,16.60
2018-09-01T18:53:26.487Z,16.60
2018-09-01T18:56:24.238Z,16.50
2018-09-01T18:59:21.969Z,16.50
2018-09-01T19:02:19.646Z,16.40
2018-09-01T19:05:21.692Z,16.30
2018-09-01T19:08:20.407Z,16.30
2018-09-01T19:11:18.534Z,16.20
2018-09-01T19:14:16.332Z,16.20
2018-09-01T19:17:13.940Z,16.20
2018-09-01T19:20:11.788Z,16.10
2018-09-01T19:23:09.610Z,16.10
2018-09-01T19:26:07.402Z,16.20
2018-09-01T19:29:04.962Z,16.10
2018-09-01T19:32:02.841Z,15.90
2018-09-01T19:35:00.813Z,15.90
2018-09-01T19:37:58.379Z,15.90
2018-09-01T19:40:56.009Z,15.80
2018-09-01T19:43:53.687Z,15.80
2018-09-01T19:46:51.381Z,15.80
2018-09-01T19:49:48.981Z,15.80
2018-09-01T19:52:46.667Z,15.70
2018-09-01T19:55:44.509Z,15.70
2018-09-01T19:58:42.483Z,15.70
2018-09-01T20:01:40.359Z,15.70
2018-09-01T20:04:38.036Z,15.70
2018-09-01T20:07:36.196Z,15.70
2018-09-01T20:10:33.451Z,15.60
2018-09-01T20:13:31.349Z,15.50
2018-09-01T20:16:29.004Z,15.40
2018-09-01T20:19:26.857Z,15.50
2018-09-01T20:22:24.494Z,15.50
2018-09-01T20:25:22.271Z,15.40
2018-09-01T20:28:20.943Z,15.40
2018-09-01T20:31:19.743Z,15.40
2018-09-01T20:34:17.547Z,15.30
2018-09-01T20:37:15.090Z,15.30
2018-09-01T20:40:12.982Z,15.30
2018-09-01T20:43:10.867Z,15.30
2018-09-01T20:46:08.601Z,15.20
2018-09-01T20:49:06.444Z,15.20
2018-09-01T20:52:04.497Z,15.20
2018-09-01T20:55:02.158Z,15.10
2018-09-01T20:57:59.958Z,15.10
2018-09-01T21:00:57.731Z,15.10
2018-09-01T21:03:55.619Z,15.10
2018-09-01T21:06:53.461Z,15.10
2018-09-01T21:09:51.080Z,15.10
2018-09-01T21:12:48.881Z,15.00
2018-09-01T21:15:46.709Z,15.00
2018-09-01T21:18:44.519Z,14.90
2018-09-01T21:21:42.429Z,14.90
2018-09-01T21:24:40.267Z,14.80
2018-09-01T21:27:39.186Z,14.80
2018-09-01T21:30:37.155Z,14.90
2018-09-01T21:33:34.879Z,14.80
2018-09-01T21:36:33.635Z,14.80
2018-09-01T21:39:31.307Z,14.80
2018-09-01T21:42:28.992Z,14.70
2018-09-01T21:45:26.786Z,14.80
2018-09-01T21:48:24.488Z,14.80
2018-09-01T21:51:23.334Z,14.70
2018-09-01T21:54:20.871Z,14.70
2018-09-01T21:57:18.757Z,14.60
2018-09-01T22:00:16.542Z,14.60
2018-09-01T22:03:14.355Z,14.50
2018-09-01T22:06:12.180Z,14.70
2018-09-01T22:09:09.397Z,14.70
2018-09-01T22:12:07.366Z,14.60
2018-09-01T22:15:05.046Z,14.60
2018-09-01T22:18:03.009Z,14.60
2018-09-01T22:21:01.812Z,14.60
2018-09-01T22:23:59.682Z,14.60
2018-09-01T22:26:57.368Z,14.60
2018-09-01T22:29:55.437Z,14.50
2018-09-01T22:32:53.910Z,14.50
2018-09-01T22:35:51.878Z,14.40
2018-09-01T22:38:49.566Z,14.30
2018-09-01T22:41:47.334Z,14.40
2018-09-01T22:44:46.197Z,14.40
2018-09-01T22:47:45.025Z,14.30
2018-09-01T22:50:42.618Z,14.30
2018-09-01T22:53:40.117Z,14.20
2018-09-01T22:56:37.855Z,14.20
2018-09-01T22:59:35.683Z,14.10
2018-09-01T23:02:33.396Z,14.10
2018-09-01T23:05:31.114Z,14.10
2018-09-01T23:08:29.161Z,14.10
2018-09-01T23:11:26.900Z,14.00
2018-09-01T23:14:24.493Z,14.00
2018-09-01T23:17:22.230Z,13.90
2018-09-01T23:20:27.140Z,13.90
2018-09-01T23:23:25.148Z,13.90
2018-09-01T23:26:22.978Z,14.00
2018-09-01T23:29:20.606Z,14.00
2018-09-01T23:32:18.305Z,14.10
2018-09-01T23:35:16.116Z,14.10
2018-09-01T23:38:13.792Z,14.00
2018-09-01T23:41:11.633Z,14.00
2018-09-01T23:44:09.435Z,14.00
2018-09-01T23:47:08.113Z,14.00
2018-09-01T23:50:05.874Z,14.00
2018-09-01T23:53:03.546Z,14.00
2018-09-01T23:56:01.274Z,14.00
2018-09-01T23:58:58.984Z,13.90
